createdAt,value
2019-03-01T00:00:54.645Z,12.30
2019-03-01T00:03:22.469Z,11.77
2019-03-01T00:06:13.337Z,12.33
2019-03-01T00:09:31.008Z,12.03
2019-03-01T00:12:25.095Z,12.63
2019-03-01T00:15:16.015Z,11.30
2019-03-01T00:18:24.098Z,10.70
2019-03-01T00:21:40.848Z,10.70
2019-03-01T00:24:43.560Z,11.97
2019-03-01T00:27:34.474Z,11.80
2019-03-01T00:30:51.907Z,11.53
2019-03-01T00:33:57.386Z,11.37
2019-03-01T00:36:54.071Z,12.17
2019-03-01T00:40:04.795Z,12.33
2019-03-01T00:42:48.630Z,12.07
2019-03-01T00:45:15.997Z,12.20
2019-03-01T00:47:43.791Z,11.87
2019-03-01T00:50:11.409Z,12.27
2019-03-01T00:52:38.896Z,11.67
2019-03-01T00:55:06.936Z,11.83
2019-03-01T00:57:34.378Z,11.60
2019-03-01T01:00:01.836Z,11.97
2019-03-01T01:02:29.624Z,12.17
2019-03-01T01:04:57.151Z,11.93
2019-03-01T01:07:24.831Z,11.50
2019-03-01T01:09:52.569Z,11.37
2019-03-01T01:12:19.989Z,11.83
2019-03-01T01:14:47.516Z,10.37
2019-03-01T01:17:15.013Z,11.77
2019-03-01T01:19:42.872Z,11.80
2019-03-01T01:22:10.724Z,11.93
2019-03-01T01:24:38.257Z,12.33
2019-03-01T01:27:15.177Z,12.23
2019-03-01T01:29:43.545Z,11.27
2019-03-01T01:32:11.561Z,11.30
2019-03-01T01:34:39.443Z,10.93
2019-03-01T01:37:07.083Z,11.13
2019-03-01T01:39:34.488Z,10.23
2019-03-01T01:42:02.062Z,10.53
2019-03-01T01:44:29.596Z,10.47
2019-03-01T01:46:57.200Z,10.97
2019-03-01T01:49:25.104Z,10.73
2019-03-01T01:51:52.652Z,11.60
2019-03-01T01:54:20.114Z,11.07
2019-03-01T01:56:47.809Z,11.80
2019-03-01T01:59:15.274Z,11.37
2019-03-01T02:01:42.934Z,11.93
2019-03-01T02:04:10.382Z,11.60
2019-03-01T02:06:38.488Z,11.90
2019-03-01T02:09:17.541Z,11.27
2019-03-01T02:11:45.044Z,12.00
2019-03-01T02:14:13.148Z,11.33
2019-03-01T02:16:40.616Z,11.80
2019-03-01T02:19:08.580Z,12.03
2019-03-01T02:21:36.717Z,12.67
2019-03-01T02:24:04.591Z,11.77
2019-03-01T02:26:32.294Z,12.23
2019-03-01T02:29:00.205Z,12.40
2019-03-01T02:31:27.993Z,12.90
2019-03-01T02:33:55.562Z,12.80
2019-03-01T02:36:23.432Z,12.23
2019-03-01T02:38:51.017Z,12.70
2019-03-01T02:41:18.474Z,12.60
2019-03-01T02:43:46.417Z,12.60
2019-03-01T02:46:14.770Z,12.37
2019-03-01T02:48:42.380Z,11.00
2019-03-01T02:51:09.892Z,10.33
2019-03-01T02:53:37.427Z,10.60
2019-03-01T02:56:05.154Z,10.27
2019-03-01T02:58:33.554Z,9.60
2019-03-01T03:01:01.770Z,8.70
2019-03-01T03:03:29.359Z,9.33
2019-03-01T03:06:16.222Z,9.07
2019-03-01T03:08:44.287Z,8.80
2019-03-01T03:16:29.639Z,9.30
2019-03-01T03:18:57.053Z,8.90
2019-03-01T03:21:24.353Z,8.77
2019-03-01T03:23:51.783Z,9.10
2019-03-01T03:26:19.126Z,9.40
2019-03-01T03:28:46.805Z,9.73
2019-03-01T03:31:14.450Z,9.93
2019-03-01T03:33:41.769Z,11.27
2019-03-01T03:36:09.124Z,10.70
2019-03-01T03:38:36.472Z,11.20
2019-03-01T03:41:04.333Z,10.40
2019-03-01T03:43:31.654Z,10.10
2019-03-01T03:45:59.209Z,10.50
2019-03-01T03:48:27.143Z,9.77
2019-03-01T03:50:54.970Z,10.70
2019-03-01T03:53:22.630Z,11.40
2019-03-01T03:55:49.976Z,12.73
2019-03-01T03:58:17.699Z,11.83
2019-03-01T04:00:45.010Z,11.73
2019-03-01T04:03:12.350Z,11.13
2019-03-01T04:05:39.798Z,11.17
2019-03-01T04:08:07.408Z,10.97
2019-03-01T04:10:35.126Z,10.97
2019-03-01T04:13:02.458Z,11.13
2019-03-01T04:15:30.258Z,10.10
2019-03-01T04:17:58.239Z,9.57
2019-03-01T04:20:25.644Z,10.30
2019-03-01T04:22:53.352Z,10.87
2019-03-01T04:25:20.799Z,10.43
2019-03-01T04:27:48.517Z,9.93
2019-03-01T04:30:16.389Z,10.50
2019-03-01T04:32:43.644Z,10.20
2019-03-01T04:35:12.341Z,9.80
2019-03-01T04:37:39.728Z,9.67
2019-03-01T04:40:08.378Z,9.87
2019-03-01T04:42:36.070Z,10.47
2019-03-01T04:45:03.537Z,10.73
2019-03-01T04:47:30.822Z,10.30
2019-03-01T04:49:58.552Z,11.07
2019-03-01T04:52:28.126Z,11.20
2019-03-01T04:54:55.585Z,11.93
2019-03-01T04:57:22.865Z,11.57
2019-03-01T04:59:50.626Z,12.03
2019-03-01T05:02:18.033Z,12.83
2019-03-01T05:04:45.356Z,12.87
2019-03-01T05:07:12.662Z,12.70
2019-03-01T05:09:40.310Z,13.50
2019-03-01T05:12:07.604Z,13.27
2019-03-01T05:14:34.911Z,13.83
2019-03-01T05:17:02.233Z,13.67
2019-03-01T05:19:29.528Z,13.87
2019-03-01T05:21:57.143Z,14.83
2019-03-01T05:24:24.460Z,14.60
2019-03-01T05:26:52.152Z,14.77
2019-03-01T05:29:20.117Z,14.97
2019-03-01T05:31:47.779Z,14.20
2019-03-01T05:34:15.090Z,15.00
2019-03-01T05:36:42.395Z,14.33
2019-03-01T05:39:09.942Z,15.00
2019-03-01T05:41:37.524Z,14.50
2019-03-01T05:44:04.929Z,15.27
2019-03-01T05:46:32.398Z,15.60
2019-03-01T05:49:00.148Z,15.47
2019-03-01T05:51:27.776Z,14.73
2019-03-01T05:53:55.115Z,14.30
2019-03-01T05:56:22.401Z,14.83
2019-03-01T05:59:13.997Z,14.83
2019-03-01T06:02:09.640Z,14.57
2019-03-01T06:04:44.296Z,14.17
2019-03-01T06:07:23.357Z,14.80
2019-03-01T06:10:13.937Z,14.00
2019-03-01T06:12:48.587Z,14.83
2019-03-01T06:15:56.680Z,14.30
2019-03-01T06:19:13.873Z,15.30
2019-03-01T06:22:10.194Z,15.47
2019-03-01T06:25:35.160Z,14.63
2019-03-01T06:28:45.610Z,13.67
2019-03-01T06:32:00.989Z,12.27
2019-03-01T06:34:50.972Z,12.20
2019-03-01T06:37:56.046Z,10.70
2019-03-01T06:41:15.017Z,9.40
2019-03-01T06:44:07.236Z,7.83
2019-03-01T06:47:07.751Z,7.30
2019-03-01T06:49:58.792Z,6.50
2019-03-01T06:52:26.509Z,5.57
2019-03-01T06:54:53.935Z,5.97
2019-03-01T06:57:21.217Z,5.33
2019-03-01T06:59:48.785Z,5.60
2019-03-01T07:02:20.782Z,5.47
2019-03-01T07:04:48.080Z,5.50
2019-03-01T07:07:15.800Z,5.47
2019-03-01T07:09:43.185Z,4.97
2019-03-01T07:12:10.957Z,5.30
2019-03-01T07:14:38.678Z,5.50
2019-03-01T07:17:06.391Z,5.00
2019-03-01T07:19:33.815Z,5.50
2019-03-01T07:22:01.270Z,5.53
2019-03-01T07:24:28.987Z,5.40
2019-03-01T07:26:56.673Z,6.03
2019-03-01T07:29:23.982Z,6.63
2019-03-01T07:31:51.765Z,5.50
2019-03-01T07:34:19.093Z,6.07
2019-03-01T07:36:46.697Z,5.97
2019-03-01T07:39:14.118Z,5.87
2019-03-01T07:41:41.847Z,5.73
2019-03-01T07:44:09.154Z,5.90
2019-03-01T07:46:36.975Z,5.60
2019-03-01T07:49:05.156Z,5.53
2019-03-01T07:51:32.509Z,5.83
2019-03-01T07:54:00.234Z,5.90
2019-03-01T07:56:27.961Z,6.70
2019-03-01T07:58:57.570Z,6.37
2019-03-01T08:01:25.703Z,5.50
2019-03-01T08:03:53.941Z,5.67
2019-03-01T08:06:21.619Z,5.33
2019-03-01T08:08:48.937Z,5.10
2019-03-01T08:11:16.231Z,4.57
2019-03-01T08:13:43.561Z,4.43
2019-03-01T08:16:11.130Z,4.33
2019-03-01T08:18:40.103Z,4.50
2019-03-01T08:21:10.087Z,4.70
2019-03-01T08:23:36.895Z,4.10
2019-03-01T08:26:04.861Z,4.07
2019-03-01T08:28:32.354Z,4.10
2019-03-01T08:31:00.089Z,4.37
2019-03-01T08:33:27.564Z,3.80
2019-03-01T08:35:55.075Z,4.17
2019-03-01T08:38:25.464Z,4.40
2019-03-01T08:40:54.370Z,4.20
2019-03-01T08:43:21.158Z,3.93
2019-03-01T08:45:48.828Z,4.00
2019-03-01T08:48:16.145Z,3.60
2019-03-01T08:50:44.413Z,3.87
2019-03-01T08:53:15.303Z,3.83
2019-03-01T08:55:42.037Z,3.27
2019-03-01T08:58:09.338Z,3.70
2019-03-01T09:00:37.646Z,3.70
2019-03-01T09:03:11.983Z,3.73
2019-03-01T09:05:39.607Z,3.50
2019-03-01T09:08:06.928Z,3.57
2019-03-01T09:10:34.351Z,4.00
2019-03-01T09:13:01.685Z,4.00
2019-03-01T09:15:29.007Z,3.83
2019-03-01T09:17:56.284Z,3.80
2019-03-01T09:20:23.630Z,4.20
2019-03-01T09:22:51.251Z,3.87
2019-03-01T09:25:18.562Z,4.40
2019-03-01T09:27:45.854Z,4.20
2019-03-01T09:30:15.849Z,4.20
2019-03-01T09:32:43.608Z,4.40
2019-03-01T09:35:29.788Z,3.67
2019-03-01T09:37:57.700Z,3.87
2019-03-01T09:40:25.656Z,3.97
2019-03-01T09:42:55.152Z,3.93
2019-03-01T09:45:22.800Z,4.03
2019-03-01T09:47:50.478Z,4.00
2019-03-01T09:50:18.140Z,3.70
2019-03-01T09:52:46.825Z,3.60
2019-03-01T09:55:14.715Z,3.70
2019-03-01T09:57:42.238Z,3.90
2019-03-01T10:00:11.460Z,4.10
2019-03-01T10:02:39.423Z,3.83
2019-03-01T10:05:08.936Z,3.67
2019-03-01T10:07:36.591Z,2.40
2019-03-01T10:10:05.733Z,1.80
2019-03-01T10:12:33.099Z,2.00
2019-03-01T10:15:01.111Z,1.90
2019-03-01T10:17:28.377Z,2.40
2019-03-01T10:19:55.696Z,1.90
2019-03-01T10:22:23.362Z,1.83
2019-03-01T10:24:51.711Z,2.07
2019-03-01T10:27:19.028Z,2.07
2019-03-01T10:29:46.711Z,3.17
2019-03-01T10:32:14.092Z,2.63
2019-03-01T10:34:41.382Z,2.30
2019-03-01T10:37:10.281Z,2.57
2019-03-01T10:39:37.975Z,2.40
2019-03-01T10:42:05.755Z,2.40
2019-03-01T10:44:33.368Z,2.50
2019-03-01T10:47:00.838Z,2.57
2019-03-01T10:49:28.514Z,2.77
2019-03-01T10:51:57.485Z,2.13
2019-03-01T10:54:25.340Z,2.20
2019-03-01T10:56:52.796Z,2.60
2019-03-01T10:59:20.236Z,2.30
2019-03-01T11:01:48.327Z,2.33
2019-03-01T11:04:16.105Z,2.70
2019-03-01T11:06:43.855Z,2.77
2019-03-01T11:09:11.195Z,2.50
2019-03-01T11:11:41.149Z,2.83
2019-03-01T11:14:08.781Z,2.70
2019-03-01T11:16:36.257Z,2.43
2019-03-01T11:19:04.004Z,2.70
2019-03-01T11:21:31.417Z,2.80
2019-03-01T11:23:58.869Z,2.30
2019-03-01T11:26:27.182Z,2.20
2019-03-01T11:28:54.537Z,2.50
2019-03-01T11:31:21.921Z,2.10
2019-03-01T11:33:49.492Z,2.23
2019-03-01T11:36:16.826Z,2.80
2019-03-01T11:38:44.421Z,2.40
2019-03-01T11:41:12.152Z,3.07
2019-03-01T11:43:39.719Z,2.23
2019-03-01T11:46:07.391Z,2.40
2019-03-01T11:48:35.080Z,2.20
2019-03-01T11:51:02.599Z,2.60
2019-03-01T11:53:30.240Z,2.53
2019-03-01T11:55:57.530Z,2.20
2019-03-01T11:58:24.831Z,2.50
2019-03-01T12:00:52.618Z,2.40
2019-03-01T12:03:20.171Z,2.50
2019-03-01T12:05:50.826Z,2.20
2019-03-01T12:08:19.016Z,2.40
2019-03-01T12:10:46.833Z,2.13
2019-03-01T12:13:14.434Z,2.20
2019-03-01T12:15:41.707Z,2.20
2019-03-01T12:18:09.031Z,2.43
2019-03-01T12:20:36.365Z,2.47
2019-03-01T12:23:03.715Z,3.30
2019-03-01T12:25:31.202Z,2.43
2019-03-01T12:27:58.652Z,2.47
2019-03-01T12:30:26.073Z,2.67
2019-03-01T12:32:53.773Z,3.80
2019-03-01T12:35:21.511Z,4.50
2019-03-01T12:37:49.208Z,4.47
2019-03-01T12:40:19.014Z,4.30
2019-03-01T12:42:46.621Z,4.27
2019-03-01T12:45:14.370Z,4.57
2019-03-01T12:47:41.828Z,4.63
2019-03-01T12:50:09.723Z,4.77
2019-03-01T12:52:37.079Z,5.10
2019-03-01T12:55:05.035Z,5.27
2019-03-01T12:57:32.474Z,4.60
2019-03-01T13:00:00.001Z,5.10
2019-03-01T13:02:27.375Z,4.87
2019-03-01T13:04:54.693Z,4.53
2019-03-01T13:07:22.692Z,5.30
2019-03-01T13:09:49.993Z,5.07
2019-03-01T13:12:30.019Z,5.47
2019-03-01T13:14:59.037Z,5.13
2019-03-01T13:17:27.008Z,6.30
2019-03-01T13:19:57.467Z,5.90
2019-03-01T13:22:24.841Z,6.13
2019-03-01T13:24:53.674Z,5.60
2019-03-01T13:27:21.652Z,5.50
2019-03-01T13:29:48.954Z,6.30
2019-03-01T13:32:16.423Z,5.50
2019-03-01T13:34:45.843Z,4.83
2019-03-01T13:37:19.361Z,3.70
2019-03-01T13:39:45.062Z,3.37
2019-03-01T13:42:14.096Z,3.37
2019-03-01T13:44:41.631Z,3.83
2019-03-01T13:47:09.473Z,3.40
2019-03-01T13:49:37.524Z,3.40
2019-03-01T13:52:05.245Z,3.50
2019-03-01T13:54:32.554Z,3.30
2019-03-01T13:56:59.927Z,3.70
2019-03-01T13:59:27.532Z,3.50
2019-03-01T14:01:54.888Z,4.10
2019-03-01T14:04:22.830Z,3.57
2019-03-01T14:06:50.255Z,4.33
2019-03-01T14:09:17.633Z,3.93
2019-03-01T14:11:45.661Z,4.10
2019-03-01T14:14:13.412Z,3.77
2019-03-01T14:16:40.890Z,3.60
2019-03-01T14:19:08.684Z,3.77
2019-03-01T14:21:36.210Z,4.10
2019-03-01T14:24:04.182Z,3.77
2019-03-01T14:26:31.622Z,3.97
2019-03-01T14:28:59.081Z,3.80
2019-03-01T14:31:26.438Z,4.27
2019-03-01T14:33:54.136Z,4.80
2019-03-01T14:36:21.664Z,4.57
2019-03-01T14:38:49.242Z,4.80
2019-03-01T14:41:17.121Z,4.50
2019-03-01T14:43:45.078Z,4.10
2019-03-01T14:46:12.765Z,4.53
2019-03-01T14:48:42.914Z,4.23
2019-03-01T14:51:10.722Z,4.37
2019-03-01T14:53:38.865Z,4.20
2019-03-01T14:56:21.498Z,4.30
2019-03-01T14:59:11.115Z,4.67
2019-03-01T15:01:46.714Z,4.03
2019-03-01T15:04:14.065Z,4.03
2019-03-01T15:06:41.726Z,4.10
2019-03-01T15:09:09.736Z,3.67
2019-03-01T15:11:40.996Z,3.33
2019-03-01T15:14:12.064Z,3.30
2019-03-01T15:16:39.322Z,3.40
2019-03-01T15:19:08.084Z,2.90
2019-03-01T15:21:37.557Z,3.43
2019-03-01T15:24:04.903Z,3.63
2019-03-01T15:26:32.375Z,3.30
2019-03-01T15:28:59.894Z,3.60
2019-03-01T15:31:27.249Z,4.23
2019-03-01T15:33:55.305Z,3.50
2019-03-01T15:36:23.228Z,3.20
2019-03-01T15:38:52.029Z,4.10
2019-03-01T15:41:19.486Z,3.80
2019-03-01T15:43:47.250Z,3.73
2019-03-01T15:46:15.546Z,3.60
2019-03-01T15:48:43.994Z,3.63
2019-03-01T15:51:11.672Z,3.10
2019-03-01T15:53:39.143Z,4.30
2019-03-01T15:56:26.024Z,3.40
2019-03-01T15:58:53.710Z,3.33
2019-03-01T16:01:21.004Z,3.57
2019-03-01T16:03:48.386Z,3.77
2019-03-01T16:06:20.147Z,4.83
2019-03-01T16:08:47.821Z,4.47
2019-03-01T16:11:14.863Z,4.03
2019-03-01T16:13:47.731Z,3.70
2019-03-01T16:16:13.607Z,4.50
2019-03-01T16:18:41.537Z,4.33
2019-03-01T16:21:08.914Z,5.73
2019-03-01T16:23:36.667Z,4.53
2019-03-01T16:26:04.029Z,4.57
2019-03-01T16:28:32.309Z,4.30
2019-03-01T16:30:59.867Z,5.20
2019-03-01T16:33:29.837Z,5.30
2019-03-01T16:35:57.239Z,5.13
2019-03-01T16:38:24.819Z,5.10
2019-03-01T16:40:52.168Z,5.00
2019-03-01T16:43:19.590Z,5.27
2019-03-01T16:45:47.053Z,5.27
2019-03-01T16:48:16.928Z,6.37
2019-03-01T16:50:45.251Z,9.20
2019-03-01T16:53:12.984Z,10.17
2019-03-01T16:55:41.083Z,8.70
2019-03-01T16:58:09.667Z,11.07
2019-03-01T17:00:37.014Z,6.80
2019-03-01T17:03:05.114Z,6.37
2019-03-01T17:05:35.802Z,5.70
2019-03-01T17:08:05.586Z,5.47
2019-03-01T17:10:31.950Z,6.03
2019-03-01T17:12:59.624Z,5.77
2019-03-01T17:15:27.061Z,6.40
2019-03-01T17:17:55.363Z,6.70
2019-03-01T17:20:23.434Z,6.23
2019-03-01T17:22:51.219Z,6.80
2019-03-01T17:25:19.430Z,6.90
2019-03-01T17:27:47.086Z,7.40
2019-03-01T17:30:17.826Z,7.80
2019-03-01T17:32:45.783Z,10.23
2019-03-01T17:35:13.304Z,10.73
2019-03-01T17:37:40.981Z,16.37
2019-03-01T17:40:09.310Z,18.13
2019-03-01T17:42:36.784Z,19.50
2019-03-01T17:45:04.345Z,19.67
2019-03-01T17:47:32.037Z,19.63
2019-03-01T17:49:59.910Z,20.67
2019-03-01T17:52:30.617Z,20.70
2019-03-01T17:54:57.622Z,19.17
2019-03-01T17:57:29.149Z,20.37
2019-03-01T17:59:55.878Z,20.80
2019-03-01T18:02:24.041Z,20.43
2019-03-01T18:04:52.980Z,20.53
2019-03-01T18:07:23.808Z,20.80
2019-03-01T18:09:51.953Z,21.67
2019-03-01T18:12:23.106Z,22.23
2019-03-01T18:14:51.211Z,22.60
2019-03-01T18:17:21.519Z,22.90
2019-03-01T18:19:50.041Z,22.80
2019-03-01T18:22:31.322Z,22.23
2019-03-01T18:24:59.074Z,23.07
2019-03-01T18:27:27.317Z,22.43
2019-03-01T18:29:55.392Z,23.00
2019-03-01T18:32:23.602Z,23.00
2019-03-01T18:34:51.760Z,23.13
2019-03-01T18:37:20.295Z,23.07
2019-03-01T18:39:48.741Z,23.13
2019-03-01T18:42:16.847Z,23.07
2019-03-01T18:44:44.591Z,24.40
2019-03-01T18:47:12.630Z,24.73
2019-03-01T18:49:40.283Z,27.83
2019-03-01T18:52:08.345Z,27.00
2019-03-01T18:54:39.799Z,25.43
2019-03-01T18:57:06.843Z,26.00
2019-03-01T18:59:34.541Z,27.20
2019-03-01T19:02:06.082Z,27.17
2019-03-01T19:04:36.263Z,27.43
2019-03-01T19:07:03.897Z,28.60
2019-03-01T19:09:31.620Z,28.10
2019-03-01T19:11:59.312Z,27.40
2019-03-01T19:14:28.061Z,26.73
2019-03-01T19:16:55.894Z,28.10
2019-03-01T19:19:29.746Z,25.70
2019-03-01T19:21:53.900Z,28.57
2019-03-01T19:24:22.029Z,31.33
2019-03-01T19:26:50.070Z,32.83
2019-03-01T19:29:17.980Z,32.60
2019-03-01T19:31:46.116Z,34.83
2019-03-01T19:34:16.976Z,33.37
2019-03-01T19:36:44.592Z,36.03
2019-03-01T19:39:22.128Z,37.17
2019-03-01T19:41:50.899Z,39.67
2019-03-01T19:44:18.925Z,40.30
2019-03-01T19:46:47.721Z,40.60
2019-03-01T19:49:16.592Z,42.70
2019-03-01T19:51:44.383Z,42.73
2019-03-01T19:54:12.078Z,41.33
2019-03-01T19:56:40.202Z,44.07
2019-03-01T19:59:09.039Z,42.47
2019-03-01T20:01:36.974Z,44.67
2019-03-01T20:04:05.629Z,42.57
2019-03-01T20:06:33.318Z,45.20
2019-03-01T20:09:04.250Z,43.93
2019-03-01T20:11:31.234Z,43.03
2019-03-01T20:13:59.684Z,42.63
2019-03-01T20:16:28.600Z,41.43
2019-03-01T20:18:56.767Z,41.57
2019-03-01T20:21:24.893Z,43.23
2019-03-01T20:23:53.162Z,44.27
2019-03-01T20:26:23.537Z,42.50
2019-03-01T20:28:51.825Z,44.40
2019-03-01T20:31:19.829Z,44.03
2019-03-01T20:33:48.373Z,44.90
2019-03-01T20:36:17.646Z,43.40
2019-03-01T20:38:46.720Z,42.33
2019-03-01T20:41:15.050Z,42.10
2019-03-01T20:43:42.888Z,43.13
2019-03-01T20:46:10.524Z,42.63
2019-03-01T20:48:38.249Z,42.43
2019-03-01T20:51:06.311Z,43.07
2019-03-01T20:53:35.558Z,40.50
2019-03-01T20:56:06.159Z,40.03
2019-03-01T20:58:35.865Z,38.80
2019-03-01T21:01:05.265Z,39.20
2019-03-01T21:03:33.301Z,38.20
2019-03-01T21:06:01.661Z,37.43
2019-03-01T21:08:30.720Z,37.37
2019-03-01T21:10:58.923Z,38.03
2019-03-01T21:13:29.252Z,38.63
2019-03-01T21:15:57.082Z,36.90
2019-03-01T21:18:25.021Z,35.53
2019-03-01T21:20:53.729Z,35.27
2019-03-01T21:23:22.716Z,35.43
2019-03-01T21:25:50.386Z,32.33
2019-03-01T21:28:18.909Z,32.50
2019-03-01T21:30:46.627Z,30.47
2019-03-01T21:33:14.371Z,29.40
2019-03-01T21:35:42.724Z,28.97
2019-03-01T21:38:10.569Z,28.97
2019-03-01T21:40:39.945Z,27.43
2019-03-01T21:43:09.255Z,25.67
2019-03-01T21:45:37.061Z,26.57
2019-03-01T21:48:06.411Z,27.10
2019-03-01T21:50:34.703Z,25.53
2019-03-01T21:53:05.428Z,25.97
2019-03-01T21:55:32.093Z,24.93
2019-03-01T21:58:03.443Z,27.53
2019-03-01T22:00:31.486Z,25.80
2019-03-01T22:02:59.783Z,26.13
2019-03-01T22:05:27.742Z,26.63
2019-03-01T22:07:55.581Z,26.03
2019-03-01T22:10:23.787Z,25.60
2019-03-01T22:12:51.527Z,24.90
2019-03-01T22:15:25.359Z,25.47
2019-03-01T22:17:53.323Z,23.70
2019-03-01T22:20:22.006Z,23.67
2019-03-01T22:22:49.551Z,23.80
2019-03-01T22:25:20.570Z,24.53
2019-03-01T22:27:48.376Z,24.07
2019-03-01T22:30:19.611Z,22.93
2019-03-01T22:32:49.274Z,22.67
2019-03-01T22:35:16.970Z,23.40
2019-03-01T22:37:46.886Z,22.23
2019-03-01T22:40:14.940Z,22.83
2019-03-01T22:42:45.794Z,22.10
2019-03-01T22:45:15.653Z,23.10
2019-03-01T22:47:43.307Z,23.50
2019-03-01T22:50:12.807Z,22.50
2019-03-01T22:52:40.734Z,23.27
2019-03-01T22:55:10.209Z,20.60
2019-03-01T22:57:39.125Z,22.07
2019-03-01T23:00:10.091Z,22.60
2019-03-01T23:02:40.316Z,21.77
2019-03-01T23:05:08.369Z,22.53
2019-03-01T23:07:36.471Z,22.57
2019-03-01T23:10:04.704Z,22.13
2019-03-01T23:12:32.420Z,22.20
2019-03-01T23:15:02.930Z,22.60
2019-03-01T23:17:30.453Z,23.03
2019-03-01T23:19:59.098Z,24.20
2019-03-01T23:22:27.597Z,25.20
2019-03-01T23:24:56.729Z,24.43
2019-03-01T23:27:24.651Z,23.57
2019-03-01T23:29:54.267Z,25.93
2019-03-01T23:32:22.675Z,24.13
2019-03-01T23:34:50.948Z,23.33
2019-03-01T23:37:18.681Z,23.77
2019-03-01T23:39:46.906Z,23.53
2019-03-01T23:42:17.378Z,22.17
2019-03-01T23:44:45.024Z,22.30
2019-03-01T23:47:12.712Z,23.13
2019-03-01T23:49:40.274Z,23.50
2019-03-01T23:52:08.618Z,23.20
2019-03-01T23:54:36.916Z,22.87
2019-03-01T23:57:05.663Z,24.17
2019-03-01T23:59:34.413Z,24.50
